sensor_id;sensor_type;location;lat;lon;timestamp;P1;durP1;ratioP1;P2;durP2;ratioP2
15256;SDS011;7731;50.720;6.912;2023-09-19T00:01:24;4.07;;;1.88;;
15256;SDS011;7731;50.720;6.912;2023-09-19T00:03:55;3.63;;;1.67;;
15256;SDS011;7731;50.720;6.912;2023-09-19T00:06:29;3.72;;;1.77;;
15256;SDS011;7731;50.720;6.912;2023-09-19T00:09:00;2.95;;;1.80;;
15256;SDS011;7731;50.720;6.912;2023-09-19T00:11:34;5.63;;;2.03;;
15256;SDS011;7731;50.720;6.912;2023-09-19T00:14:05;3.65;;;1.80;;
15256;SDS011;7731;50.720;6.912;2023-09-19T00:16:36;5.88;;;2.03;;
15256;SDS011;7731;50.720;6.912;2023-09-19T00:19:07;2.50;;;1.80;;
15256;SDS011;7731;50.720;6.912;2023-09-19T00:21:38;3.58;;;1.65;;
15256;SDS011;7731;50.720;6.912;2023-09-19T00:24:08;5.78;;;1.88;;
15256;SDS011;7731;50.720;6.912;2023-09-19T00:26:42;3.00;;;1.75;;
15256;SDS011;7731;50.720;6.912;2023-09-19T00:29:13;4.28;;;1.73;;
15256;SDS011;7731;50.720;6.912;2023-09-19T00:31:47;4.47;;;1.80;;
15256;SDS011;7731;50.720;6.912;2023-09-19T00:34:18;5.50;;;1.98;;
15256;SDS011;7731;50.720;6.912;2023-09-19T00:36:48;3.17;;;1.67;;
15256;SDS011;7731;50.720;6.912;2023-09-19T00:39:22;2.47;;;1.70;;
15256;SDS011;7731;50.720;6.912;2023-09-19T00:42:00;4.35;;;1.70;;
15256;SDS011;7731;50.720;6.912;2023-09-19T00:44:31;4.63;;;2.03;;
15256;SDS011;7731;50.720;6.912;2023-09-19T00:47:04;3.45;;;1.75;;
15256;SDS011;7731;50.720;6.912;2023-09-19T00:49:36;4.75;;;2.05;;
15256;SDS011;7731;50.720;6.912;2023-09-19T00:52:06;2.95;;;1.80;;
15256;SDS011;7731;50.720;6.912;2023-09-19T00:54:37;4.47;;;1.90;;
15256;SDS011;7731;50.720;6.912;2023-09-19T00:57:13;5.25;;;1.80;;
15256;SDS011;7731;50.720;6.912;2023-09-19T00:59:45;4.68;;;1.75;;
15256;SDS011;7731;50.720;6.912;2023-09-19T01:02:19;5.35;;;2.00;;
15256;SDS011;7731;50.720;6.912;2023-09-19T01:04:50;3.65;;;1.63;;
15256;SDS011;7731;50.720;6.912;2023-09-19T01:07:21;3.70;;;1.80;;
15256;SDS011;7731;50.720;6.912;2023-09-19T01:09:51;5.38;;;1.80;;
15256;SDS011;7731;50.720;6.912;2023-09-19T01:12:26;4.93;;;1.90;;
15256;SDS011;7731;50.720;6.912;2023-09-19T01:15:11;4.32;;;2.00;;
15256;SDS011;7731;50.720;6.912;2023-09-19T01:17:59;6.13;;;1.63;;
15256;SDS011;7731;50.720;6.912;2023-09-19T01:20:41;5.07;;;1.80;;
15256;SDS011;7731;50.720;6.912;2023-09-19T01:23:23;4.70;;;1.92;;
15256;SDS011;7731;50.720;6.912;2023-09-19T01:26:18;5.43;;;2.40;;
15256;SDS011;7731;50.720;6.912;2023-09-19T01:29:26;3.97;;;1.80;;
15256;SDS011;7731;50.720;6.912;2023-09-19T01:32:13;7.55;;;2.10;;
15256;SDS011;7731;50.720;6.912;2023-09-19T01:34:49;3.75;;;1.77;;
15256;SDS011;7731;50.720;6.912;2023-09-19T01:37:24;7.05;;;2.25;;
15256;SDS011;7731;50.720;6.912;2023-09-19T01:39:57;4.72;;;2.10;;
15256;SDS011;7731;50.720;6.912;2023-09-19T01:42:43;4.00;;;2.00;;
15256;SDS011;7731;50.720;6.912;2023-09-19T01:45:26;5.40;;;2.10;;
15256;SDS011;7731;50.720;6.912;2023-09-19T01:48:16;6.97;;;2.03;;
15256;SDS011;7731;50.720;6.912;2023-09-19T01:51:03;7.20;;;2.08;;
15256;SDS011;7731;50.720;6.912;2023-09-19T01:53:41;8.02;;;2.20;;
15256;SDS011;7731;50.720;6.912;2023-09-19T01:56:25;6.15;;;2.00;;
15256;SDS011;7731;50.720;6.912;2023-09-19T01:59:06;8.45;;;2.22;;
15256;SDS011;7731;50.720;6.912;2023-09-19T02:01:43;6.47;;;2.50;;
15256;SDS011;7731;50.720;6.912;2023-09-19T02:04:18;5.05;;;2.20;;
15256;SDS011;7731;50.720;6.912;2023-09-19T02:06:48;6.80;;;2.38;;
15256;SDS011;7731;50.720;6.912;2023-09-19T02:09:19;4.63;;;1.98;;
15256;SDS011;7731;50.720;6.912;2023-09-19T02:11:49;7.93;;;2.75;;
15256;SDS011;7731;50.720;6.912;2023-09-19T02:14:22;6.78;;;2.30;;
15256;SDS011;7731;50.720;6.912;2023-09-19T02:16:54;6.22;;;2.40;;
15256;SDS011;7731;50.720;6.912;2023-09-19T02:19:29;8.43;;;2.30;;
15256;SDS011;7731;50.720;6.912;2023-09-19T02:22:00;6.65;;;2.55;;
15256;SDS011;7731;50.720;6.912;2023-09-19T02:24:35;7.85;;;2.50;;
15256;SDS011;7731;50.720;6.912;2023-09-19T02:27:06;7.05;;;2.40;;
15256;SDS011;7731;50.720;6.912;2023-09-19T02:29:40;9.98;;;2.85;;
15256;SDS011;7731;50.720;6.912;2023-09-19T02:32:11;10.35;;;2.75;;
15256;SDS011;7731;50.720;6.912;2023-09-19T02:34:44;6.45;;;2.25;;
15256;SDS011;7731;50.720;6.912;2023-09-19T02:37:15;9.13;;;2.22;;
15256;SDS011;7731;50.720;6.912;2023-09-19T02:39:46;5.53;;;2.15;;
15256;SDS011;7731;50.720;6.912;2023-09-19T02:42:16;6.25;;;2.63;;
15256;SDS011;7731;50.720;6.912;2023-09-19T02:44:47;8.00;;;2.58;;
15256;SDS011;7731;50.720;6.912;2023-09-19T02:47:17;9.27;;;2.70;;
15256;SDS011;7731;50.720;6.912;2023-09-19T02:49:50;6.70;;;2.35;;
15256;SDS011;7731;50.720;6.912;2023-09-19T02:52:21;9.18;;;3.10;;
15256;SDS011;7731;50.720;6.912;2023-09-19T02:54:51;8.57;;;2.80;;
15256;SDS011;7731;50.720;6.912;2023-09-19T02:57:22;11.73;;;3.00;;
15256;SDS011;7731;50.720;6.912;2023-09-19T02:59:54;6.63;;;2.80;;
15256;SDS011;7731;50.720;6.912;2023-09-19T03:02:27;10.00;;;2.55;;
15256;SDS011;7731;50.720;6.912;2023-09-19T03:05:02;6.47;;;2.40;;
15256;SDS011;7731;50.720;6.912;2023-09-19T03:07:34;6.57;;;2.55;;
15256;SDS011;7731;50.720;6.912;2023-09-19T03:10:09;8.30;;;2.78;;
15256;SDS011;7731;50.720;6.912;2023-09-19T03:12:43;8.63;;;2.72;;
15256;SDS011;7731;50.720;6.912;2023-09-19T03:15:13;6.47;;;2.33;;
15256;SDS011;7731;50.720;6.912;2023-09-19T03:17:46;7.60;;;2.50;;
15256;SDS011;7731;50.720;6.912;2023-09-19T03:20:21;7.55;;;2.90;;
15256;SDS011;7731;50.720;6.912;2023-09-19T03:22:54;7.47;;;2.63;;
15256;SDS011;7731;50.720;6.912;2023-09-19T03:25:33;8.10;;;3.17;;
15256;SDS011;7731;50.720;6.912;2023-09-19T03:28:04;7.53;;;2.80;;
15256;SDS011;7731;50.720;6.912;2023-09-19T03:30:38;7.38;;;2.45;;
15256;SDS011;7731;50.720;6.912;2023-09-19T03:33:09;9.38;;;3.03;;
15256;SDS011;7731;50.720;6.912;2023-09-19T03:35:45;11.80;;;2.60;;
15256;SDS011;7731;50.720;6.912;2023-09-19T03:38:24;8.05;;;2.55;;
15256;SDS011;7731;50.720;6.912;2023-09-19T03:40:55;10.55;;;2.70;;
15256;SDS011;7731;50.720;6.912;2023-09-19T03:43:26;10.70;;;3.13;;
15256;SDS011;7731;50.720;6.912;2023-09-19T03:45:56;9.70;;;2.92;;
15256;SDS011;7731;50.720;6.912;2023-09-19T03:48:31;7.63;;;2.47;;
15256;SDS011;7731;50.720;6.912;2023-09-19T03:51:07;7.95;;;2.80;;
15256;SDS011;7731;50.720;6.912;2023-09-19T03:53:37;9.65;;;3.03;;
15256;SDS011;7731;50.720;6.912;2023-09-19T03:56:07;6.50;;;2.85;;
15256;SDS011;7731;50.720;6.912;2023-09-19T03:58:38;9.38;;;2.80;;
15256;SDS011;7731;50.720;6.912;2023-09-19T04:01:08;8.98;;;3.03;;
15256;SDS011;7731;50.720;6.912;2023-09-19T04:03:39;7.80;;;2.75;;
15256;SDS011;7731;50.720;6.912;2023-09-19T04:06:41;6.55;;;2.60;;
15256;SDS011;7731;50.720;6.912;2023-09-19T04:09:12;6.53;;;2.80;;
15256;SDS011;7731;50.720;6.912;2023-09-19T04:11:42;10.63;;;2.70;;
15256;SDS011;7731;50.720;6.912;2023-09-19T04:14:12;8.95;;;2.75;;
15256;SDS011;7731;50.720;6.912;2023-09-19T04:16:43;9.57;;;2.72;;
15256;SDS011;7731;50.720;6.912;2023-09-19T04:19:13;10.95;;;3.13;;
15256;SDS011;7731;50.720;6.912;2023-09-19T04:21:46;7.45;;;2.63;;
15256;SDS011;7731;50.720;6.912;2023-09-19T04:24:16;5.95;;;2.50;;
15256;SDS011;7731;50.720;6.912;2023-09-19T04:26:47;8.57;;;2.90;;
15256;SDS011;7731;50.720;6.912;2023-09-19T04:29:17;5.57;;;2.65;;
15256;SDS011;7731;50.720;6.912;2023-09-19T04:31:48;7.75;;;2.58;;
15256;SDS011;7731;50.720;6.912;2023-09-19T04:34:18;7.10;;;2.70;;
15256;SDS011;7731;50.720;6.912;2023-09-19T04:36:53;6.40;;;2.35;;
15256;SDS011;7731;50.720;6.912;2023-09-19T04:39:24;8.68;;;2.83;;
15256;SDS011;7731;50.720;6.912;2023-09-19T04:41:56;5.70;;;2.60;;
15256;SDS011;7731;50.720;6.912;2023-09-19T04:44:26;7.82;;;2.80;;
15256;SDS011;7731;50.720;6.912;2023-09-19T04:46:57;6.30;;;2.70;;
15256;SDS011;7731;50.720;6.912;2023-09-19T04:49:27;6.35;;;2.63;;
15256;SDS011;7731;50.720;6.912;2023-09-19T04:52:00;6.32;;;3.05;;
15256;SDS011;7731;50.720;6.912;2023-09-19T04:54:30;7.15;;;2.92;;
15256;SDS011;7731;50.720;6.912;2023-09-19T04:57:01;8.35;;;2.78;;
15256;SDS011;7731;50.720;6.912;2023-09-19T04:59:32;4.25;;;2.30;;
15256;SDS011;7731;50.720;6.912;2023-09-19T05:02:03;10.55;;;2.85;;
15256;SDS011;7731;50.720;6.912;2023-09-19T05:04:34;12.32;;;3.13;;
15256;SDS011;7731;50.720;6.912;2023-09-19T05:07:09;7.72;;;3.05;;
15256;SDS011;7731;50.720;6.912;2023-09-19T05:09:40;5.75;;;2.28;;
15256;SDS011;7731;50.720;6.912;2023-09-19T05:12:11;6.95;;;2.90;;
15256;SDS011;7731;50.720;6.912;2023-09-19T05:14:46;6.55;;;2.65;;
15256;SDS011;7731;50.720;6.912;2023-09-19T05:17:16;6.18;;;2.83;;
15256;SDS011;7731;50.720;6.912;2023-09-19T05:19:46;6.93;;;2.88;;
15256;SDS011;7731;50.720;6.912;2023-09-19T05:22:19;8.75;;;2.80;;
15256;SDS011;7731;50.720;6.912;2023-09-19T05:24:51;8.02;;;2.85;;
15256;SDS011;7731;50.720;6.912;2023-09-19T05:27:21;8.35;;;2.65;;
15256;SDS011;7731;50.720;6.912;2023-09-19T05:29:51;9.30;;;2.97;;
15256;SDS011;7731;50.720;6.912;2023-09-19T05:32:22;9.15;;;2.63;;
15256;SDS011;7731;50.720;6.912;2023-09-19T05:34:52;7.07;;;2.55;;
15256;SDS011;7731;50.720;6.912;2023-09-19T05:37:25;6.43;;;2.97;;
15256;SDS011;7731;50.720;6.912;2023-09-19T05:39:56;6.35;;;2.70;;
15256;SDS011;7731;50.720;6.912;2023-09-19T05:42:26;8.55;;;2.92;;
15256;SDS011;7731;50.720;6.912;2023-09-19T05:44:57;8.57;;;2.88;;
15256;SDS011;7731;50.720;6.912;2023-09-19T05:47:27;8.07;;;2.85;;
15256;SDS011;7731;50.720;6.912;2023-09-19T05:49:58;9.95;;;3.67;;
15256;SDS011;7731;50.720;6.912;2023-09-19T05:52:32;9.00;;;2.65;;
15256;SDS011;7731;50.720;6.912;2023-09-19T05:55:05;9.40;;;3.35;;
15256;SDS011;7731;50.720;6.912;2023-09-19T05:57:37;7.20;;;2.78;;
15256;SDS011;7731;50.720;6.912;2023-09-19T06:00:14;6.00;;;3.00;;
15256;SDS011;7731;50.720;6.912;2023-09-19T06:02:45;8.95;;;2.95;;
15256;SDS011;7731;50.720;6.912;2023-09-19T06:05:20;5.38;;;2.47;;
15256;SDS011;7731;50.720;6.912;2023-09-19T06:07:54;8.27;;;2.65;;
15256;SDS011;7731;50.720;6.912;2023-09-19T06:10:27;8.65;;;3.10;;
15256;SDS011;7731;50.720;6.912;2023-09-19T06:12:58;8.60;;;2.50;;
15256;SDS011;7731;50.720;6.912;2023-09-19T06:15:30;6.90;;;2.42;;
15256;SDS011;7731;50.720;6.912;2023-09-19T06:18:02;9.57;;;3.00;;
15256;SDS011;7731;50.720;6.912;2023-09-19T06:20:34;8.57;;;3.00;;
15256;SDS011;7731;50.720;6.912;2023-09-19T06:23:14;9.05;;;3.05;;
15256;SDS011;7731;50.720;6.912;2023-09-19T06:25:46;8.50;;;2.63;;
15256;SDS011;7731;50.720;6.912;2023-09-19T06:28:19;9.65;;;2.83;;
15256;SDS011;7731;50.720;6.912;2023-09-19T06:30:50;7.18;;;2.80;;
15256;SDS011;7731;50.720;6.912;2023-09-19T06:33:21;6.70;;;2.90;;
15256;SDS011;7731;50.720;6.912;2023-09-19T06:35:52;8.30;;;2.65;;
15256;SDS011;7731;50.720;6.912;2023-09-19T06:38:29;8.50;;;3.20;;
15256;SDS011;7731;50.720;6.912;2023-09-19T06:41:00;9.32;;;2.63;;
15256;SDS011;7731;50.720;6.912;2023-09-19T06:43:37;8.65;;;2.92;;
15256;SDS011;7731;50.720;6.912;2023-09-19T06:46:08;14.90;;;3.70;;
15256;SDS011;7731;50.720;6.912;2023-09-19T06:48:39;10.73;;;2.50;;
15256;SDS011;7731;50.720;6.912;2023-09-19T06:51:10;8.20;;;2.55;;
15256;SDS011;7731;50.720;6.912;2023-09-19T06:53:45;10.40;;;2.30;;
15256;SDS011;7731;50.720;6.912;2023-09-19T06:56:15;7.85;;;2.28;;
15256;SDS011;7731;50.720;6.912;2023-09-19T06:58:46;6.13;;;2.00;;
15256;SDS011;7731;50.720;6.912;2023-09-19T07:01:16;7.38;;;2.88;;
15256;SDS011;7731;50.720;6.912;2023-09-19T07:03:46;6.80;;;2.38;;
15256;SDS011;7731;50.720;6.912;2023-09-19T07:06:17;8.60;;;2.70;;
15256;SDS011;7731;50.720;6.912;2023-09-19T07:08:50;7.30;;;2.72;;
15256;SDS011;7731;50.720;6.912;2023-09-19T07:11:20;8.40;;;3.00;;
15256;SDS011;7731;50.720;6.912;2023-09-19T07:13:51;11.38;;;2.50;;
15256;SDS011;7731;50.720;6.912;2023-09-19T07:16:21;8.40;;;2.35;;
15256;SDS011;7731;50.720;6.912;2023-09-19T07:18:56;7.78;;;2.30;;
15256;SDS011;7731;50.720;6.912;2023-09-19T07:21:28;7.53;;;1.98;;
15256;SDS011;7731;50.720;6.912;2023-09-19T07:24:02;8.57;;;2.75;;
15256;SDS011;7731;50.720;6.912;2023-09-19T07:26:34;6.03;;;2.55;;
15256;SDS011;7731;50.720;6.912;2023-09-19T07:29:06;7.55;;;2.30;;
15256;SDS011;7731;50.720;6.912;2023-09-19T07:31:36;6.78;;;2.13;;
15256;SDS011;7731;50.720;6.912;2023-09-19T07:34:07;4.03;;;2.03;;
15256;SDS011;7731;50.720;6.912;2023-09-19T07:36:40;9.40;;;2.58;;
15256;SDS011;7731;50.720;6.912;2023-09-19T07:39:13;5.20;;;2.42;;
15256;SDS011;7731;50.720;6.912;2023-09-19T07:41:49;7.38;;;2.40;;
15256;SDS011;7731;50.720;6.912;2023-09-19T07:44:20;5.85;;;2.30;;
15256;SDS011;7731;50.720;6.912;2023-09-19T07:46:52;9.60;;;2.17;;
15256;SDS011;7731;50.720;6.912;2023-09-19T07:49:23;6.50;;;2.35;;
15256;SDS011;7731;50.720;6.912;2023-09-19T07:51:53;11.45;;;2.45;;
15256;SDS011;7731;50.720;6.912;2023-09-19T07:54:28;8.43;;;2.72;;
15256;SDS011;7731;50.720;6.912;2023-09-19T07:57:02;6.43;;;2.30;;
15256;SDS011;7731;50.720;6.912;2023-09-19T07:59:34;9.10;;;2.20;;
15256;SDS011;7731;50.720;6.912;2023-09-19T08:02:04;10.40;;;3.05;;
15256;SDS011;7731;50.720;6.912;2023-09-19T08:04:42;7.05;;;2.20;;
15256;SDS011;7731;50.720;6.912;2023-09-19T08:07:13;7.80;;;1.92;;
15256;SDS011;7731;50.720;6.912;2023-09-19T08:09:47;7.20;;;2.20;;
15256;SDS011;7731;50.720;6.912;2023-09-19T08:12:17;3.28;;;1.83;;
15256;SDS011;7731;50.720;6.912;2023-09-19T08:14:50;6.28;;;1.95;;
15256;SDS011;7731;50.720;6.912;2023-09-19T08:17:23;6.38;;;2.10;;
15256;SDS011;7731;50.720;6.912;2023-09-19T08:19:54;5.55;;;1.55;;
15256;SDS011;7731;50.720;6.912;2023-09-19T08:22:25;7.68;;;2.28;;
15256;SDS011;7731;50.720;6.912;2023-09-19T08:24:58;6.28;;;2.13;;
15256;SDS011;7731;50.720;6.912;2023-09-19T08:27:32;6.60;;;2.25;;
15256;SDS011;7731;50.720;6.912;2023-09-19T08:30:03;7.05;;;2.30;;
15256;SDS011;7731;50.720;6.912;2023-09-19T08:32:37;6.80;;;2.20;;
15256;SDS011;7731;50.720;6.912;2023-09-19T08:35:09;8.35;;;2.65;;
15256;SDS011;7731;50.720;6.912;2023-09-19T08:37:41;5.63;;;2.03;;
15256;SDS011;7731;50.720;6.912;2023-09-19T08:40:15;6.82;;;2.30;;
15256;SDS011;7731;50.720;6.912;2023-09-19T08:42:49;6.15;;;2.13;;
15256;SDS011;7731;50.720;6.912;2023-09-19T08:45:21;5.85;;;2.67;;
15256;SDS011;7731;50.720;6.912;2023-09-19T08:47:56;6.43;;;2.30;;
15256;SDS011;7731;50.720;6.912;2023-09-19T08:50:42;4.28;;;1.77;;
15256;SDS011;7731;50.720;6.912;2023-09-19T08:53:21;8.95;;;2.25;;
15256;SDS011;7731;50.720;6.912;2023-09-19T08:56:01;7.38;;;2.83;;
15256;SDS011;7731;50.720;6.912;2023-09-19T08:58:39;5.22;;;2.20;;
15256;SDS011;7731;50.720;6.912;2023-09-19T09:01:17;5.75;;;2.53;;
15256;SDS011;7731;50.720;6.912;2023-09-19T09:03:52;6.07;;;2.30;;
15256;SDS011;7731;50.720;6.912;2023-09-19T09:06:29;4.57;;;2.00;;
15256;SDS011;7731;50.720;6.912;2023-09-19T09:09:02;5.82;;;2.33;;
15256;SDS011;7731;50.720;6.912;2023-09-19T09:11:39;5.68;;;1.95;;
15256;SDS011;7731;50.720;6.912;2023-09-19T09:14:12;5.18;;;2.08;;
15256;SDS011;7731;50.720;6.912;2023-09-19T09:16:44;6.13;;;1.88;;
15256;SDS011;7731;50.720;6.912;2023-09-19T09:19:15;6.53;;;2.33;;
15256;SDS011;7731;50.720;6.912;2023-09-19T09:21:51;5.93;;;1.70;;
15256;SDS011;7731;50.720;6.912;2023-09-19T09:24:27;4.40;;;2.10;;
15256;SDS011;7731;50.720;6.912;2023-09-19T09:27:03;6.05;;;2.28;;
15256;SDS011;7731;50.720;6.912;2023-09-19T09:29:40;4.65;;;2.28;;
15256;SDS011;7731;50.720;6.912;2023-09-19T09:32:17;8.02;;;2.17;;
15256;SDS011;7731;50.720;6.912;2023-09-19T09:34:51;6.82;;;2.38;;
15256;SDS011;7731;50.720;6.912;2023-09-19T09:37:27;6.32;;;1.92;;
15256;SDS011;7731;50.720;6.912;2023-09-19T09:40:00;6.15;;;2.47;;
15256;SDS011;7731;50.720;6.912;2023-09-19T09:42:49;5.03;;;2.10;;
15256;SDS011;7731;50.720;6.912;2023-09-19T09:45:26;5.63;;;2.45;;
15256;SDS011;7731;50.720;6.912;2023-09-19T09:48:04;5.88;;;1.85;;
15256;SDS011;7731;50.720;6.912;2023-09-19T09:50:46;6.35;;;2.17;;
15256;SDS011;7731;50.720;6.912;2023-09-19T09:53:23;6.25;;;2.05;;
15256;SDS011;7731;50.720;6.912;2023-09-19T09:55:59;5.03;;;1.85;;
15256;SDS011;7731;50.720;6.912;2023-09-19T09:58:36;6.22;;;1.95;;
15256;SDS011;7731;50.720;6.912;2023-09-19T10:01:21;6.45;;;2.20;;
15256;SDS011;7731;50.720;6.912;2023-09-19T10:03:58;6.00;;;2.20;;
15256;SDS011;7731;50.720;6.912;2023-09-19T10:06:39;4.38;;;1.90;;
15256;SDS011;7731;50.720;6.912;2023-09-19T10:09:15;3.28;;;1.90;;
15256;SDS011;7731;50.720;6.912;2023-09-19T10:11:47;6.40;;;2.03;;
15256;SDS011;7731;50.720;6.912;2023-09-19T10:14:35;6.07;;;1.52;;
15256;SDS011;7731;50.720;6.912;2023-09-19T10:17:10;3.83;;;1.55;;
15256;SDS011;7731;50.720;6.912;2023-09-19T10:19:50;5.28;;;1.77;;
15256;SDS011;7731;50.720;6.912;2023-09-19T10:22:32;6.95;;;2.35;;
15256;SDS011;7731;50.720;6.912;2023-09-19T10:25:09;5.38;;;1.75;;
15256;SDS011;7731;50.720;6.912;2023-09-19T10:27:40;5.03;;;2.22;;
15256;SDS011;7731;50.720;6.912;2023-09-19T10:30:15;4.53;;;1.60;;
15256;SDS011;7731;50.720;6.912;2023-09-19T10:32:47;5.55;;;2.22;;
15256;SDS011;7731;50.720;6.912;2023-09-19T10:35:32;3.47;;;1.92;;
15256;SDS011;7731;50.720;6.912;2023-09-19T10:38:10;4.82;;;1.90;;
15256;SDS011;7731;50.720;6.912;2023-09-19T10:40:45;3.92;;;1.95;;
15256;SDS011;7731;50.720;6.912;2023-09-19T10:43:29;3.70;;;1.70;;
15256;SDS011;7731;50.720;6.912;2023-09-19T10:46:06;4.47;;;2.10;;
15256;SDS011;7731;50.720;6.912;2023-09-19T10:48:38;5.13;;;1.83;;
15256;SDS011;7731;50.720;6.912;2023-09-19T10:51:11;6.25;;;2.10;;
15256;SDS011;7731;50.720;6.912;2023-09-19T10:53:50;4.55;;;2.15;;
15256;SDS011;7731;50.720;6.912;2023-09-19T10:56:27;3.80;;;1.90;;
15256;SDS011;7731;50.720;6.912;2023-09-19T10:59:08;7.90;;;3.17;;
15256;SDS011;7731;50.720;6.912;2023-09-19T11:01:47;6.28;;;2.30;;
15256;SDS011;7731;50.720;6.912;2023-09-19T11:04:24;3.15;;;1.90;;
15256;SDS011;7731;50.720;6.912;2023-09-19T11:07:05;3.45;;;1.85;;
15256;SDS011;7731;50.720;6.912;2023-09-19T11:09:45;8.20;;;1.75;;
15256;SDS011;7731;50.720;6.912;2023-09-19T11:18:57;4.13;;;2.22;;
15256;SDS011;7731;50.720;6.912;2023-09-19T11:24:30;4.72;;;2.38;;
15256;SDS011;7731;50.720;6.912;2023-09-19T11:27:09;3.65;;;1.85;;
15256;SDS011;7731;50.720;6.912;2023-09-19T11:29:46;2.60;;;1.67;;
15256;SDS011;7731;50.720;6.912;2023-09-19T11:32:17;3.83;;;1.90;;
15256;SDS011;7731;50.720;6.912;2023-09-19T11:36:01;5.07;;;1.88;;
15256;SDS011;7731;50.720;6.912;2023-09-19T11:41:39;7.05;;;2.40;;
15256;SDS011;7731;50.720;6.912;2023-09-19T11:47:08;4.93;;;2.15;;
15256;SDS011;7731;50.720;6.912;2023-09-19T11:49:40;4.30;;;2.20;;
15256;SDS011;7731;50.720;6.912;2023-09-19T11:52:14;5.68;;;2.20;;
15256;SDS011;7731;50.720;6.912;2023-09-19T11:54:54;5.30;;;1.95;;
15256;SDS011;7731;50.720;6.912;2023-09-19T11:57:26;4.88;;;2.30;;
15256;SDS011;7731;50.720;6.912;2023-09-19T12:00:02;5.32;;;2.50;;
15256;SDS011;7731;50.720;6.912;2023-09-19T12:02:37;5.43;;;2.45;;
15256;SDS011;7731;50.720;6.912;2023-09-19T12:05:17;3.60;;;1.90;;
15256;SDS011;7731;50.720;6.912;2023-09-19T12:08:03;6.70;;;2.35;;
15256;SDS011;7731;50.720;6.912;2023-09-19T12:10:44;4.40;;;2.20;;
15256;SDS011;7731;50.720;6.912;2023-09-19T12:13:18;6.25;;;2.40;;
15256;SDS011;7731;50.720;6.912;2023-09-19T12:15:52;4.72;;;1.95;;
15256;SDS011;7731;50.720;6.912;2023-09-19T12:18:25;4.93;;;1.92;;
15256;SDS011;7731;50.720;6.912;2023-09-19T12:20:57;3.67;;;2.20;;
15256;SDS011;7731;50.720;6.912;2023-09-19T12:23:31;4.25;;;2.30;;
15256;SDS011;7731;50.720;6.912;2023-09-19T12:26:04;5.45;;;2.15;;
15256;SDS011;7731;50.720;6.912;2023-09-19T12:28:40;5.22;;;2.30;;
15256;SDS011;7731;50.720;6.912;2023-09-19T12:31:12;3.88;;;2.00;;
15256;SDS011;7731;50.720;6.912;2023-09-19T12:33:44;5.78;;;2.15;;
15256;SDS011;7731;50.720;6.912;2023-09-19T12:36:21;3.75;;;1.88;;
15256;SDS011;7731;50.720;6.912;2023-09-19T12:38:59;6.22;;;2.28;;
15256;SDS011;7731;50.720;6.912;2023-09-19T12:41:35;6.13;;;1.55;;
15256;SDS011;7731;50.720;6.912;2023-09-19T12:44:08;5.18;;;1.70;;
15256;SDS011;7731;50.720;6.912;2023-09-19T12:46:40;5.45;;;1.90;;
15256;SDS011;7731;50.720;6.912;2023-09-19T12:49:15;3.95;;;1.50;;
15256;SDS011;7731;50.720;6.912;2023-09-19T12:51:47;4.05;;;1.80;;
15256;SDS011;7731;50.720;6.912;2023-09-19T12:54:24;4.53;;;1.75;;
15256;SDS011;7731;50.720;6.912;2023-09-19T12:56:55;4.63;;;1.73;;
15256;SDS011;7731;50.720;6.912;2023-09-19T12:59:29;3.90;;;1.80;;
15256;SDS011;7731;50.720;6.912;2023-09-19T13:02:05;3.67;;;1.90;;
15256;SDS011;7731;50.720;6.912;2023-09-19T13:04:51;2.90;;;1.73;;
15256;SDS011;7731;50.720;6.912;2023-09-19T13:07:39;5.40;;;2.00;;
15256;SDS011;7731;50.720;6.912;2023-09-19T13:10:20;4.88;;;1.73;;
15256;SDS011;7731;50.720;6.912;2023-09-19T13:12:50;4.18;;;1.83;;
15256;SDS011;7731;50.720;6.912;2023-09-19T13:15:21;3.80;;;1.50;;
15256;SDS011;7731;50.720;6.912;2023-09-19T13:17:54;3.42;;;1.60;;
15256;SDS011;7731;50.720;6.912;2023-09-19T13:20:28;2.80;;;1.40;;
15256;SDS011;7731;50.720;6.912;2023-09-19T13:23:05;3.13;;;1.40;;
15256;SDS011;7731;50.720;6.912;2023-09-19T13:26:00;2.28;;;1.40;;
15256;SDS011;7731;50.720;6.912;2023-09-19T13:28:33;4.97;;;1.65;;
15256;SDS011;7731;50.720;6.912;2023-09-19T13:31:03;3.70;;;1.45;;
15256;SDS011;7731;50.720;6.912;2023-09-19T13:33:34;2.90;;;1.40;;
15256;SDS011;7731;50.720;6.912;2023-09-19T13:36:05;3.55;;;1.40;;
15256;SDS011;7731;50.720;6.912;2023-09-19T13:38:36;3.47;;;1.27;;
15256;SDS011;7731;50.720;6.912;2023-09-19T13:41:09;3.20;;;1.42;;
15256;SDS011;7731;50.720;6.912;2023-09-19T13:43:40;2.75;;;1.40;;
15256;SDS011;7731;50.720;6.912;2023-09-19T13:46:10;4.68;;;1.38;;
15256;SDS011;7731;50.720;6.912;2023-09-19T13:48:45;3.92;;;1.30;;
15256;SDS011;7731;50.720;6.912;2023-09-19T13:51:15;3.63;;;1.20;;
15256;SDS011;7731;50.720;6.912;2023-09-19T13:53:45;4.20;;;1.67;;
15256;SDS011;7731;50.720;6.912;2023-09-19T13:56:19;4.65;;;2.70;;
15256;SDS011;7731;50.720;6.912;2023-09-19T13:58:50;2.47;;;1.30;;
15256;SDS011;7731;50.720;6.912;2023-09-19T14:01:21;3.10;;;1.40;;
15256;SDS011;7731;50.720;6.912;2023-09-19T14:03:53;3.78;;;1.75;;
15256;SDS011;7731;50.720;6.912;2023-09-19T14:06:25;3.50;;;1.40;;
15256;SDS011;7731;50.720;6.912;2023-09-19T14:08:55;4.30;;;1.55;;
15256;SDS011;7731;50.720;6.912;2023-09-19T14:11:30;5.30;;;3.03;;
15256;SDS011;7731;50.720;6.912;2023-09-19T14:14:00;4.03;;;1.42;;
15256;SDS011;7731;50.720;6.912;2023-09-19T14:16:31;3.63;;;1.80;;
15256;SDS011;7731;50.720;6.912;2023-09-19T14:19:01;4.78;;;2.22;;
15256;SDS011;7731;50.720;6.912;2023-09-19T14:21:32;4.80;;;1.50;;
15256;SDS011;7731;50.720;6.912;2023-09-19T14:24:03;2.80;;;1.23;;
15256;SDS011;7731;50.720;6.912;2023-09-19T14:26:38;2.92;;;1.77;;
15256;SDS011;7731;50.720;6.912;2023-09-19T14:29:08;2.53;;;1.50;;
15256;SDS011;7731;50.720;6.912;2023-09-19T14:31:39;4.25;;;1.50;;
15256;SDS011;7731;50.720;6.912;2023-09-19T14:34:10;3.40;;;1.25;;
15256;SDS011;7731;50.720;6.912;2023-09-19T14:36:41;2.88;;;1.38;;
15256;SDS011;7731;50.720;6.912;2023-09-19T14:39:11;2.95;;;1.23;;
15256;SDS011;7731;50.720;6.912;2023-09-19T14:41:49;5.18;;;1.50;;
15256;SDS011;7731;50.720;6.912;2023-09-19T14:44:22;2.80;;;1.73;;
15256;SDS011;7731;50.720;6.912;2023-09-19T14:46:53;2.95;;;1.40;;
15256;SDS011;7731;50.720;6.912;2023-09-19T14:49:23;3.30;;;1.60;;
15256;SDS011;7731;50.720;6.912;2023-09-19T14:51:53;2.38;;;1.30;;
15256;SDS011;7731;50.720;6.912;2023-09-19T14:54:24;2.15;;;1.33;;
15256;SDS011;7731;50.720;6.912;2023-09-19T14:56:58;2.13;;;1.02;;
15256;SDS011;7731;50.720;6.912;2023-09-19T14:59:37;3.45;;;1.63;;
15256;SDS011;7731;50.720;6.912;2023-09-19T15:02:08;5.18;;;1.77;;
15256;SDS011;7731;50.720;6.912;2023-09-19T15:04:44;3.03;;;1.27;;
15256;SDS011;7731;50.720;6.912;2023-09-19T15:07:17;2.30;;;1.20;;
15256;SDS011;7731;50.720;6.912;2023-09-19T15:09:48;2.88;;;1.40;;
15256;SDS011;7731;50.720;6.912;2023-09-19T15:12:20;3.05;;;1.38;;
15256;SDS011;7731;50.720;6.912;2023-09-19T15:14:51;4.50;;;2.95;;
15256;SDS011;7731;50.720;6.912;2023-09-19T15:17:21;6.20;;;4.65;;
15256;SDS011;7731;50.720;6.912;2023-09-19T15:19:52;6.97;;;1.98;;
15256;SDS011;7731;50.720;6.912;2023-09-19T15:22:22;4.30;;;1.90;;
15256;SDS011;7731;50.720;6.912;2023-09-19T15:24:56;4.25;;;1.55;;
15256;SDS011;7731;50.720;6.912;2023-09-19T15:30:04;4.00;;;1.80;;
15256;SDS011;7731;50.720;6.912;2023-09-19T15:32:37;4.63;;;1.88;;
15256;SDS011;7731;50.720;6.912;2023-09-19T15:35:08;2.88;;;1.30;;
15256;SDS011;7731;50.720;6.912;2023-09-19T15:37:40;2.83;;;1.52;;
15256;SDS011;7731;50.720;6.912;2023-09-19T15:40:11;2.03;;;1.30;;
15256;SDS011;7731;50.720;6.912;2023-09-19T15:42:46;6.22;;;2.45;;
15256;SDS011;7731;50.720;6.912;2023-09-19T15:45:18;4.32;;;1.50;;
15256;SDS011;7731;50.720;6.912;2023-09-19T15:47:49;3.95;;;1.23;;
15256;SDS011;7731;50.720;6.912;2023-09-19T15:50:19;2.97;;;1.50;;
15256;SDS011;7731;50.720;6.912;2023-09-19T15:52:53;3.75;;;1.50;;
15256;SDS011;7731;50.720;6.912;2023-09-19T15:55:24;3.05;;;1.40;;
15256;SDS011;7731;50.720;6.912;2023-09-19T15:57:59;2.47;;;1.55;;
15256;SDS011;7731;50.720;6.912;2023-09-19T16:00:32;3.63;;;1.63;;